UHSSUHBB

Guest
Details From UHSS - Khomutovo
To UHBB - Ignatyevo
Flight Number -
Tags Generated
Created
Modified
Stats Distance 644 nm / 1,193 km
Max Altitude 0 ft / 0 m
Waypoints 4
Social Downloads 1
Likes 0
Share VATSIM

Download

Looking for another format? Having issues loading an existing format? Contact us
Advertisement - Login to hide

Notes

Generated

Route

UHSS ARBIT BLG UHBB

ID Type Via Altitude Latitude Longitude Leg Dist Tot Dist Heading (true) Name
O UHSS APT - 0 ft / 0 m 46.87036˚ 142.71727˚ - 0 nm - -
ARBIT FIX - 0 ft / 0 m 48.88333˚ 135.31667˚ 321 nm 321 nm 295° / 289° -
BLG VOR - 0 ft / 0 m 50.39333˚ 127.42667˚ 319 nm 641 nm 289° / 283° BLAGOVESHCHENSK Ignatyevo VOR-
O UHBB APT - 0 ft / 0 m 50.43781˚ 127.40845˚ 2 nm 644 nm 345° / 345° -

Altitude Profile

Advertisement - Login to hide

Weather


0- 5 10 15 20 25 30 35+ Temperature / ° C

Clouds and Precipitation
Forecast for 2017-12-17 18:00 UTC. Updated 37 minutes ago

Ground ~20,000 ft ~40,000 ft Winds

UHSS

Details ICAO UHSS (UUS)
Name KHOMUTOVO
Region Russia
Timezone Asia/Sakhalin (UTC+11.0)
Stats Elevation 59 ft / 18 m (AMSL)
Location 46.885582° 142.717529°
Runways 1
Magnetic Variation 10.385° W

METAR

UHSS 171700Z 00000MPS 9999 -SHSN SCT028CB M20/M22 Q1013 R01/810360 NOSIG RMK MT OBSC QFE759/1012

Decode

TAF

TAF UHSS 171700Z 1718/1824 17003MPS 9999 BKN030CB TEMPO 1718/1722 5000 -SHSN BKN015CB TEMPO 1722/1824 1000 SHSN BKN004 BKN010CB

Decode

Departure Runways

ID Width Length Bearing (true) Bearing (mag) Surface Threshold Offset Overrun Length
01 148 ft / 45 m 11,109 ft / 3,386 m 0.66° 11.04° Concrete 0 ft / 0 m 255 ft / 78 m
19 148 ft / 45 m 11,109 ft / 3,386 m 180.66° 191.04° Concrete 0 ft / 0 m 265 ft / 81 m

UHBB

Details ICAO UHBB (BQS)
Name IGNATYEVO
Region Russia
Timezone Asia/Yakutsk (UTC+9.0)
Stats Elevation 638 ft / 194 m (AMSL)
Location 50.425395° 127.412489°
Runways 1
Magnetic Variation 12.263° W

METAR

UHBB 171700Z 25002MPS CAVOK M24/M27 Q1016 R36/410260 NOSIG RMK QFE744/0992

Decode

TAF

TAF UHBB 171645Z 1718/1818 27003MPS 9999 NSC TEMPO 1718/1723 3000 BR FM180000 32003MPS CAVOK

Decode

Destination Runways

ID Width Length Bearing (true) Bearing (mag) Surface Threshold Offset Overrun Length
18 148 ft / 45 m 9,254 ft / 2,821 m 168.30° 180.56° Asphalt 0 ft / 0 m 145 ft / 44 m
36 148 ft / 45 m 9,254 ft / 2,821 m 348.30° 0.56° Asphalt 0 ft / 0 m 160 ft / 49 m

Approach Navaids

Runway Type Ident Frequency Range Bearing (true) Bearing (mag) Slope Elevation
36 Localiser ILZ 108.70 MHz 18 nm / 33 km 348.31° 0.57° - 638 ft / 194 m (AMSL)
36 Glidescope ILZ 108.70 MHz 10 nm / 19 km 348.30° 0.56° 3.05° 638 ft / 194 m (AMSL)

Popular Alternatives